sensor_id;sensor_type;location;lat;lon;timestamp;temperature;humidity
73777;DHT22;62088;50.240;2.696;2023-02-23T00:01:57;8.20;86.40
73777;DHT22;62088;50.240;2.696;2023-02-23T00:04:27;8.20;86.40
73777;DHT22;62088;50.240;2.696;2023-02-23T00:06:55;8.20;86.40
73777;DHT22;62088;50.240;2.696;2023-02-23T00:09:22;8.20;86.40
73777;DHT22;62088;50.240;2.696;2023-02-23T00:11:55;8.20;86.30
73777;DHT22;62088;50.240;2.696;2023-02-23T00:14:27;8.20;86.40
73777;DHT22;62088;50.240;2.696;2023-02-23T00:16:57;8.20;86.40
73777;DHT22;62088;50.240;2.696;2023-02-23T00:19:26;8.20;86.40
73777;DHT22;62088;50.240;2.696;2023-02-23T00:21:53;8.20;86.40
73777;DHT22;62088;50.240;2.696;2023-02-23T00:24:21;8.20;86.40
73777;DHT22;62088;50.240;2.696;2023-02-23T00:26:49;8.20;86.40
73777;DHT22;62088;50.240;2.696;2023-02-23T00:29:21;8.20;86.40
73777;DHT22;62088;50.240;2.696;2023-02-23T00:31:50;8.20;86.40
73777;DHT22;62088;50.240;2.696;2023-02-23T00:34:19;8.20;86.40
73777;DHT22;62088;50.240;2.696;2023-02-23T00:36:51;8.20;86.50
73777;DHT22;62088;50.240;2.696;2023-02-23T00:39:21;8.20;86.50
73777;DHT22;62088;50.240;2.696;2023-02-23T00:41:53;8.20;86.50
73777;DHT22;62088;50.240;2.696;2023-02-23T00:44:22;8.10;86.50
73777;DHT22;62088;50.240;2.696;2023-02-23T00:46:50;8.20;86.50
73777;DHT22;62088;50.240;2.696;2023-02-23T00:49:19;8.20;86.50
73777;DHT22;62088;50.240;2.696;2023-02-23T00:51:47;8.20;86.50
73777;DHT22;62088;50.240;2.696;2023-02-23T00:54:15;8.20;86.50
73777;DHT22;62088;50.240;2.696;2023-02-23T00:56:44;8.20;86.50
73777;DHT22;62088;50.240;2.696;2023-02-23T00:59:12;8.20;86.50
73777;DHT22;62088;50.240;2.696;2023-02-23T01:01:40;8.20;86.50
73777;DHT22;62088;50.240;2.696;2023-02-23T01:04:11;8.20;86.50
73777;DHT22;62088;50.240;2.696;2023-02-23T01:06:39;8.20;86.50
73777;DHT22;62088;50.240;2.696;2023-02-23T01:09:13;8.20;86.60
73777;DHT22;62088;50.240;2.696;2023-02-23T01:11:41;8.20;86.50
73777;DHT22;62088;50.240;2.696;2023-02-23T01:14:13;8.20;86.50
73777;DHT22;62088;50.240;2.696;2023-02-23T01:16:40;8.20;86.50
73777;DHT22;62088;50.240;2.696;2023-02-23T01:19:09;8.30;86.50
73777;DHT22;62088;50.240;2.696;2023-02-23T01:21:39;8.20;86.50
73777;DHT22;62088;50.240;2.696;2023-02-23T01:24:08;8.20;86.50
73777;DHT22;62088;50.240;2.696;2023-02-23T01:26:38;8.20;86.50
73777;DHT22;62088;50.240;2.696;2023-02-23T01:29:12;8.20;86.50
73777;DHT22;62088;50.240;2.696;2023-02-23T01:31:42;8.20;86.50
73777;DHT22;62088;50.240;2.696;2023-02-23T01:34:12;8.20;86.50
73777;DHT22;62088;50.240;2.696;2023-02-23T01:36:41;8.30;86.50
73777;DHT22;62088;50.240;2.696;2023-02-23T01:39:17;8.20;86.50
73777;DHT22;62088;50.240;2.696;2023-02-23T01:41:45;8.20;86.50
73777;DHT22;62088;50.240;2.696;2023-02-23T01:46:43;8.20;86.60
73777;DHT22;62088;50.240;2.696;2023-02-23T01:49:20;8.20;86.60
73777;DHT22;62088;50.240;2.696;2023-02-23T01:51:52;8.20;86.60
73777;DHT22;62088;50.240;2.696;2023-02-23T01:54:25;8.20;86.60
73777;DHT22;62088;50.240;2.696;2023-02-23T01:56:55;8.20;86.60
73777;DHT22;62088;50.240;2.696;2023-02-23T01:59:44;8.20;86.60
73777;DHT22;62088;50.240;2.696;2023-02-23T02:02:12;8.20;86.60
73777;DHT22;62088;50.240;2.696;2023-02-23T02:04:41;8.20;86.60
73777;DHT22;62088;50.240;2.696;2023-02-23T02:07:17;8.20;86.60
73777;DHT22;62088;50.240;2.696;2023-02-23T02:09:48;8.20;86.60
73777;DHT22;62088;50.240;2.696;2023-02-23T02:12:36;8.20;86.70
73777;DHT22;62088;50.240;2.696;2023-02-23T02:15:06;8.20;86.70
73777;DHT22;62088;50.240;2.696;2023-02-23T02:32:07;8.20;86.60
73777;DHT22;62088;50.240;2.696;2023-02-23T02:37:56;8.20;86.70
73777;DHT22;62088;50.240;2.696;2023-02-23T02:40:41;8.20;86.70
73777;DHT22;62088;50.240;2.696;2023-02-23T02:43:22;8.20;86.60
73777;DHT22;62088;50.240;2.696;2023-02-23T02:46:16;8.20;86.60
73777;DHT22;62088;50.240;2.696;2023-02-23T02:52:03;8.20;86.60
73777;DHT22;62088;50.240;2.696;2023-02-23T02:57:06;8.10;86.50
73777;DHT22;62088;50.240;2.696;2023-02-23T02:59:45;8.20;86.50
73777;DHT22;62088;50.240;2.696;2023-02-23T03:02:39;8.10;86.50
73777;DHT22;62088;50.240;2.696;2023-02-23T03:05:36;8.10;86.50
73777;DHT22;62088;50.240;2.696;2023-02-23T03:08:47;8.10;86.50
73777;DHT22;62088;50.240;2.696;2023-02-23T03:11:40;8.10;86.50
73777;DHT22;62088;50.240;2.696;2023-02-23T03:18:00;8.00;86.50
73777;DHT22;62088;50.240;2.696;2023-02-23T03:20:53;8.00;86.60
73777;DHT22;62088;50.240;2.696;2023-02-23T03:24:00;8.00;86.50
73777;DHT22;62088;50.240;2.696;2023-02-23T03:26:59;8.00;86.60
73777;DHT22;62088;50.240;2.696;2023-02-23T03:30:05;8.00;86.60
73777;DHT22;62088;50.240;2.696;2023-02-23T03:32:59;8.00;86.70
73777;DHT22;62088;50.240;2.696;2023-02-23T03:36:05;8.00;86.70
73777;DHT22;62088;50.240;2.696;2023-02-23T03:39:18;8.00;86.70
73777;DHT22;62088;50.240;2.696;2023-02-23T03:42:10;8.00;86.70
73777;DHT22;62088;50.240;2.696;2023-02-23T03:45:03;8.00;86.80
73777;DHT22;62088;50.240;2.696;2023-02-23T03:47:50;8.00;86.80
73777;DHT22;62088;50.240;2.696;2023-02-23T03:50:40;8.00;86.90
73777;DHT22;62088;50.240;2.696;2023-02-23T03:53:33;8.00;86.90
73777;DHT22;62088;50.240;2.696;2023-02-23T03:56:22;8.00;86.90
73777;DHT22;62088;50.240;2.696;2023-02-23T03:59:12;8.00;86.90
73777;DHT22;62088;50.240;2.696;2023-02-23T04:02:00;8.00;86.90
73777;DHT22;62088;50.240;2.696;2023-02-23T04:04:47;8.00;86.90
73777;DHT22;62088;50.240;2.696;2023-02-23T04:07:34;8.00;86.90
73777;DHT22;62088;50.240;2.696;2023-02-23T04:10:22;8.00;86.90
73777;DHT22;62088;50.240;2.696;2023-02-23T04:13:19;8.00;86.90
73777;DHT22;62088;50.240;2.696;2023-02-23T04:15:57;8.00;86.80
73777;DHT22;62088;50.240;2.696;2023-02-23T04:18:28;7.90;86.80
73777;DHT22;62088;50.240;2.696;2023-02-23T04:20:57;8.00;86.70
73777;DHT22;62088;50.240;2.696;2023-02-23T04:23:25;7.90;86.70
73777;DHT22;62088;50.240;2.696;2023-02-23T04:25:53;7.90;86.60
73777;DHT22;62088;50.240;2.696;2023-02-23T04:28:22;7.90;86.60
73777;DHT22;62088;50.240;2.696;2023-02-23T04:30:49;7.90;86.60
73777;DHT22;62088;50.240;2.696;2023-02-23T04:33:19;7.90;86.60
73777;DHT22;62088;50.240;2.696;2023-02-23T04:35:48;7.90;86.60
73777;DHT22;62088;50.240;2.696;2023-02-23T04:38:15;7.90;86.60
73777;DHT22;62088;50.240;2.696;2023-02-23T04:40:42;7.90;86.60
73777;DHT22;62088;50.240;2.696;2023-02-23T04:43:11;7.80;86.60
73777;DHT22;62088;50.240;2.696;2023-02-23T04:45:38;7.90;86.60
73777;DHT22;62088;50.240;2.696;2023-02-23T04:48:06;7.90;86.60
73777;DHT22;62088;50.240;2.696;2023-02-23T04:50:33;7.80;86.60
73777;DHT22;62088;50.240;2.696;2023-02-23T04:53:00;7.90;86.70
73777;DHT22;62088;50.240;2.696;2023-02-23T04:55:27;7.80;86.70
73777;DHT22;62088;50.240;2.696;2023-02-23T04:57:59;7.80;86.70
73777;DHT22;62088;50.240;2.696;2023-02-23T05:00:26;7.70;86.70
73777;DHT22;62088;50.240;2.696;2023-02-23T05:02:56;7.70;86.70
73777;DHT22;62088;50.240;2.696;2023-02-23T05:05:23;7.70;86.70
73777;DHT22;62088;50.240;2.696;2023-02-23T05:07:50;7.70;86.70
73777;DHT22;62088;50.240;2.696;2023-02-23T05:10:17;7.70;86.70
73777;DHT22;62088;50.240;2.696;2023-02-23T05:12:44;7.70;86.70
73777;DHT22;62088;50.240;2.696;2023-02-23T05:15:12;7.60;86.70
73777;DHT22;62088;50.240;2.696;2023-02-23T05:17:39;7.60;86.70
73777;DHT22;62088;50.240;2.696;2023-02-23T05:20:11;7.60;86.70
73777;DHT22;62088;50.240;2.696;2023-02-23T05:22:39;7.60;86.70
73777;DHT22;62088;50.240;2.696;2023-02-23T05:25:07;7.50;86.70
73777;DHT22;62088;50.240;2.696;2023-02-23T05:27:36;7.50;86.70
73777;DHT22;62088;50.240;2.696;2023-02-23T05:30:04;7.50;86.60
73777;DHT22;62088;50.240;2.696;2023-02-23T05:32:33;7.50;86.60
73777;DHT22;62088;50.240;2.696;2023-02-23T05:35:01;7.50;86.50
73777;DHT22;62088;50.240;2.696;2023-02-23T05:37:29;7.50;86.50
73777;DHT22;62088;50.240;2.696;2023-02-23T05:39:56;7.40;86.50
73777;DHT22;62088;50.240;2.696;2023-02-23T05:42:23;7.40;86.50
73777;DHT22;62088;50.240;2.696;2023-02-23T05:44:50;7.40;86.40
73777;DHT22;62088;50.240;2.696;2023-02-23T05:47:17;7.40;86.40
73777;DHT22;62088;50.240;2.696;2023-02-23T05:49:44;7.30;86.40
73777;DHT22;62088;50.240;2.696;2023-02-23T05:52:12;7.30;86.30
73777;DHT22;62088;50.240;2.696;2023-02-23T05:54:39;7.20;86.30
73777;DHT22;62088;50.240;2.696;2023-02-23T05:57:06;7.20;86.30
73777;DHT22;62088;50.240;2.696;2023-02-23T05:59:34;7.20;86.30
73777;DHT22;62088;50.240;2.696;2023-02-23T06:02:01;7.10;86.30
73777;DHT22;62088;50.240;2.696;2023-02-23T06:04:32;7.10;86.30
73777;DHT22;62088;50.240;2.696;2023-02-23T06:06:59;7.10;86.30
73777;DHT22;62088;50.240;2.696;2023-02-23T06:09:26;7.00;86.30
73777;DHT22;62088;50.240;2.696;2023-02-23T06:11:53;7.00;86.30
73777;DHT22;62088;50.240;2.696;2023-02-23T06:14:20;7.00;86.30
73777;DHT22;62088;50.240;2.696;2023-02-23T06:16:47;7.00;86.30
73777;DHT22;62088;50.240;2.696;2023-02-23T06:19:14;7.00;86.30
73777;DHT22;62088;50.240;2.696;2023-02-23T06:21:41;7.00;86.30
73777;DHT22;62088;50.240;2.696;2023-02-23T06:24:09;7.00;86.20
73777;DHT22;62088;50.240;2.696;2023-02-23T06:26:36;7.00;86.20
73777;DHT22;62088;50.240;2.696;2023-02-23T06:29:04;6.90;86.10
73777;DHT22;62088;50.240;2.696;2023-02-23T06:31:31;6.90;86.10
73777;DHT22;62088;50.240;2.696;2023-02-23T06:33:58;6.90;86.10
73777;DHT22;62088;50.240;2.696;2023-02-23T06:36:26;6.90;86.00
73777;DHT22;62088;50.240;2.696;2023-02-23T06:38:57;6.90;86.00
73777;DHT22;62088;50.240;2.696;2023-02-23T06:41:25;6.90;86.00
73777;DHT22;62088;50.240;2.696;2023-02-23T06:43:52;6.90;86.00
73777;DHT22;62088;50.240;2.696;2023-02-23T06:46:19;6.90;85.90
73777;DHT22;62088;50.240;2.696;2023-02-23T06:48:46;6.80;85.90
73777;DHT22;62088;50.240;2.696;2023-02-23T06:51:13;6.80;85.90
73777;DHT22;62088;50.240;2.696;2023-02-23T06:53:40;6.80;85.90
73777;DHT22;62088;50.240;2.696;2023-02-23T06:56:07;6.80;85.90
73777;DHT22;62088;50.240;2.696;2023-02-23T06:58:34;6.70;85.90
73777;DHT22;62088;50.240;2.696;2023-02-23T07:01:01;6.70;85.90
73777;DHT22;62088;50.240;2.696;2023-02-23T07:03:28;6.70;85.90
73777;DHT22;62088;50.240;2.696;2023-02-23T07:05:55;6.70;85.90
73777;DHT22;62088;50.240;2.696;2023-02-23T07:08:22;6.70;85.90
73777;DHT22;62088;50.240;2.696;2023-02-23T07:10:49;6.70;85.90
73777;DHT22;62088;50.240;2.696;2023-02-23T07:13:16;6.70;85.90
73777;DHT22;62088;50.240;2.696;2023-02-23T07:15:43;6.70;85.80
73777;DHT22;62088;50.240;2.696;2023-02-23T07:18:10;6.70;85.90
73777;DHT22;62088;50.240;2.696;2023-02-23T07:20:37;6.70;85.90
73777;DHT22;62088;50.240;2.696;2023-02-23T07:23:04;6.70;85.90
73777;DHT22;62088;50.240;2.696;2023-02-23T07:25:31;6.70;85.90
73777;DHT22;62088;50.240;2.696;2023-02-23T07:27:58;6.70;85.90
73777;DHT22;62088;50.240;2.696;2023-02-23T07:30:25;6.70;85.90
73777;DHT22;62088;50.240;2.696;2023-02-23T07:32:53;6.70;85.90
73777;DHT22;62088;50.240;2.696;2023-02-23T07:35:20;6.70;85.90
73777;DHT22;62088;50.240;2.696;2023-02-23T07:37:47;6.70;85.90
73777;DHT22;62088;50.240;2.696;2023-02-23T07:40:14;6.70;85.90
73777;DHT22;62088;50.240;2.696;2023-02-23T07:42:41;6.70;86.00
73777;DHT22;62088;50.240;2.696;2023-02-23T07:45:10;6.70;86.00
73777;DHT22;62088;50.240;2.696;2023-02-23T07:47:38;6.80;86.10
73777;DHT22;62088;50.240;2.696;2023-02-23T07:50:06;6.80;86.10
73777;DHT22;62088;50.240;2.696;2023-02-23T07:52:37;6.80;86.20
73777;DHT22;62088;50.240;2.696;2023-02-23T07:55:05;6.80;86.20
73777;DHT22;62088;50.240;2.696;2023-02-23T07:57:33;6.90;86.20
73777;DHT22;62088;50.240;2.696;2023-02-23T08:00:01;6.90;86.30
73777;DHT22;62088;50.240;2.696;2023-02-23T08:02:38;6.90;86.30
73777;DHT22;62088;50.240;2.696;2023-02-23T08:05:05;6.90;86.30
73777;DHT22;62088;50.240;2.696;2023-02-23T08:07:32;6.90;86.30
73777;DHT22;62088;50.240;2.696;2023-02-23T08:09:59;6.90;86.40
73777;DHT22;62088;50.240;2.696;2023-02-23T08:12:27;6.90;86.40
73777;DHT22;62088;50.240;2.696;2023-02-23T08:14:54;7.00;86.50
73777;DHT22;62088;50.240;2.696;2023-02-23T08:17:21;7.00;86.50
73777;DHT22;62088;50.240;2.696;2023-02-23T08:19:48;7.10;86.50
73777;DHT22;62088;50.240;2.696;2023-02-23T08:22:15;7.10;86.50
73777;DHT22;62088;50.240;2.696;2023-02-23T08:24:42;7.10;86.60
73777;DHT22;62088;50.240;2.696;2023-02-23T08:27:09;7.20;86.60
73777;DHT22;62088;50.240;2.696;2023-02-23T08:29:36;7.20;86.70
73777;DHT22;62088;50.240;2.696;2023-02-23T08:32:04;7.30;86.70
73777;DHT22;62088;50.240;2.696;2023-02-23T08:34:39;7.30;86.80
73777;DHT22;62088;50.240;2.696;2023-02-23T08:37:06;7.30;86.80
73777;DHT22;62088;50.240;2.696;2023-02-23T08:39:34;7.30;86.80
73777;DHT22;62088;50.240;2.696;2023-02-23T08:42:01;7.30;86.80
73777;DHT22;62088;50.240;2.696;2023-02-23T08:44:28;7.40;86.90
73777;DHT22;62088;50.240;2.696;2023-02-23T08:46:55;7.40;87.00
73777;DHT22;62088;50.240;2.696;2023-02-23T08:49:24;7.50;87.00
73777;DHT22;62088;50.240;2.696;2023-02-23T08:51:51;7.50;87.00
73777;DHT22;62088;50.240;2.696;2023-02-23T08:54:18;7.60;87.00
73777;DHT22;62088;50.240;2.696;2023-02-23T08:56:46;7.60;87.00
73777;DHT22;62088;50.240;2.696;2023-02-23T08:59:13;7.60;87.00
73777;DHT22;62088;50.240;2.696;2023-02-23T09:01:41;7.60;87.10
73777;DHT22;62088;50.240;2.696;2023-02-23T09:04:08;7.70;87.10
73777;DHT22;62088;50.240;2.696;2023-02-23T09:06:36;7.70;87.10
73777;DHT22;62088;50.240;2.696;2023-02-23T09:09:03;7.70;87.10
73777;DHT22;62088;50.240;2.696;2023-02-23T09:11:30;7.80;87.10
73777;DHT22;62088;50.240;2.696;2023-02-23T09:13:58;7.90;87.10
73777;DHT22;62088;50.240;2.696;2023-02-23T09:16:25;7.90;87.10
73777;DHT22;62088;50.240;2.696;2023-02-23T09:18:52;7.90;87.10
73777;DHT22;62088;50.240;2.696;2023-02-23T09:21:20;7.90;87.00
73777;DHT22;62088;50.240;2.696;2023-02-23T09:23:51;7.90;87.00
73777;DHT22;62088;50.240;2.696;2023-02-23T09:26:24;8.00;87.00
73777;DHT22;62088;50.240;2.696;2023-02-23T09:28:55;7.90;87.00
73777;DHT22;62088;50.240;2.696;2023-02-23T09:31:23;8.00;86.90
73777;DHT22;62088;50.240;2.696;2023-02-23T09:33:51;8.10;86.90
73777;DHT22;62088;50.240;2.696;2023-02-23T09:36:20;8.10;86.90
73777;DHT22;62088;50.240;2.696;2023-02-23T09:38:50;8.10;86.90
73777;DHT22;62088;50.240;2.696;2023-02-23T09:41:45;8.20;86.90
73777;DHT22;62088;50.240;2.696;2023-02-23T09:50:02;8.30;86.80
73777;DHT22;62088;50.240;2.696;2023-02-23T09:52:40;8.40;86.80
73777;DHT22;62088;50.240;2.696;2023-02-23T09:55:11;8.40;86.70
73777;DHT22;62088;50.240;2.696;2023-02-23T09:57:43;8.40;86.70
73777;DHT22;62088;50.240;2.696;2023-02-23T10:00:25;8.40;86.60
73777;DHT22;62088;50.240;2.696;2023-02-23T10:03:02;8.40;86.60
73777;DHT22;62088;50.240;2.696;2023-02-23T10:05:40;8.50;86.50
73777;DHT22;62088;50.240;2.696;2023-02-23T10:08:42;8.50;86.50
73777;DHT22;62088;50.240;2.696;2023-02-23T10:14:22;8.60;86.40
73777;DHT22;62088;50.240;2.696;2023-02-23T10:17:18;8.60;86.20
73777;DHT22;62088;50.240;2.696;2023-02-23T10:22:15;8.70;86.10
73777;DHT22;62088;50.240;2.696;2023-02-23T10:24:53;8.80;86.10
73777;DHT22;62088;50.240;2.696;2023-02-23T10:27:24;8.80;86.10
73777;DHT22;62088;50.240;2.696;2023-02-23T10:29:55;8.90;86.10
73777;DHT22;62088;50.240;2.696;2023-02-23T10:35:27;9.00;85.90
73777;DHT22;62088;50.240;2.696;2023-02-23T10:37:56;9.00;85.90
73777;DHT22;62088;50.240;2.696;2023-02-23T10:40:26;9.10;85.80
73777;DHT22;62088;50.240;2.696;2023-02-23T10:42:56;9.10;85.80
73777;DHT22;62088;50.240;2.696;2023-02-23T10:45:25;9.20;85.70
73777;DHT22;62088;50.240;2.696;2023-02-23T10:50:26;9.30;85.70
73777;DHT22;62088;50.240;2.696;2023-02-23T10:53:03;9.40;85.60
73777;DHT22;62088;50.240;2.696;2023-02-23T10:55:32;9.40;85.50
73777;DHT22;62088;50.240;2.696;2023-02-23T10:58:10;9.40;85.30
73777;DHT22;62088;50.240;2.696;2023-02-23T11:00:54;9.50;85.10
73777;DHT22;62088;50.240;2.696;2023-02-23T11:03:47;9.50;85.00
73777;DHT22;62088;50.240;2.696;2023-02-23T11:06:37;9.50;84.90
73777;DHT22;62088;50.240;2.696;2023-02-23T11:09:37;9.50;84.90
73777;DHT22;62088;50.240;2.696;2023-02-23T11:12:20;9.50;84.80
73777;DHT22;62088;50.240;2.696;2023-02-23T11:14:49;9.60;84.80
73777;DHT22;62088;50.240;2.696;2023-02-23T11:17:27;9.60;84.70
73777;DHT22;62088;50.240;2.696;2023-02-23T11:20:09;9.60;84.70
73777;DHT22;62088;50.240;2.696;2023-02-23T11:22:44;9.60;84.70
73777;DHT22;62088;50.240;2.696;2023-02-23T11:25:37;9.70;84.60
73777;DHT22;62088;50.240;2.696;2023-02-23T11:28:04;9.70;84.30
73777;DHT22;62088;50.240;2.696;2023-02-23T11:30:35;9.70;84.20
73777;DHT22;62088;50.240;2.696;2023-02-23T11:33:04;9.70;84.20
73777;DHT22;62088;50.240;2.696;2023-02-23T11:35:37;9.70;84.10
73777;DHT22;62088;50.240;2.696;2023-02-23T11:38:26;9.80;84.00
73777;DHT22;62088;50.240;2.696;2023-02-23T11:41:00;9.80;83.90
73777;DHT22;62088;50.240;2.696;2023-02-23T11:43:27;9.80;83.90
73777;DHT22;62088;50.240;2.696;2023-02-23T11:45:56;9.90;83.80
73777;DHT22;62088;50.240;2.696;2023-02-23T11:48:30;9.90;83.70
73777;DHT22;62088;50.240;2.696;2023-02-23T11:50:58;9.90;83.80
73777;DHT22;62088;50.240;2.696;2023-02-23T11:53:29;9.90;83.60
73777;DHT22;62088;50.240;2.696;2023-02-23T11:56:00;10.00;83.50
73777;DHT22;62088;50.240;2.696;2023-02-23T11:58:46;10.00;83.40
73777;DHT22;62088;50.240;2.696;2023-02-23T12:01:17;10.10;83.40
73777;DHT22;62088;50.240;2.696;2023-02-23T12:03:55;10.10;83.20
73777;DHT22;62088;50.240;2.696;2023-02-23T12:09:19;10.20;82.60
73777;DHT22;62088;50.240;2.696;2023-02-23T12:12:08;10.30;82.50
73777;DHT22;62088;50.240;2.696;2023-02-23T12:14:53;10.40;82.20
73777;DHT22;62088;50.240;2.696;2023-02-23T12:17:23;10.40;81.90
73777;DHT22;62088;50.240;2.696;2023-02-23T12:22:45;10.40;81.40
73777;DHT22;62088;50.240;2.696;2023-02-23T12:25:32;10.50;81.20
73777;DHT22;62088;50.240;2.696;2023-02-23T12:34:26;10.60;80.70
73777;DHT22;62088;50.240;2.696;2023-02-23T12:37:03;10.60;80.70
73777;DHT22;62088;50.240;2.696;2023-02-23T12:39:39;10.60;79.90
73777;DHT22;62088;50.240;2.696;2023-02-23T12:42:22;10.60;79.20
73777;DHT22;62088;50.240;2.696;2023-02-23T12:47:39;10.70;79.80
73777;DHT22;62088;50.240;2.696;2023-02-23T12:53:20;10.70;80.00
73777;DHT22;62088;50.240;2.696;2023-02-23T13:01:09;10.70;79.40
73777;DHT22;62088;50.240;2.696;2023-02-23T13:04:03;10.70;79.30
73777;DHT22;62088;50.240;2.696;2023-02-23T13:06:58;10.70;79.50
73777;DHT22;62088;50.240;2.696;2023-02-23T13:12:32;10.80;80.00
73777;DHT22;62088;50.240;2.696;2023-02-23T13:15:16;10.90;80.10
73777;DHT22;62088;50.240;2.696;2023-02-23T13:20:37;11.10;79.90
73777;DHT22;62088;50.240;2.696;2023-02-23T13:28:33;11.30;79.60
73777;DHT22;62088;50.240;2.696;2023-02-23T13:31:02;11.30;79.50
73777;DHT22;62088;50.240;2.696;2023-02-23T13:33:31;11.40;79.30
73777;DHT22;62088;50.240;2.696;2023-02-23T13:36:10;11.40;79.20
73777;DHT22;62088;50.240;2.696;2023-02-23T13:41:40;11.40;79.00
73777;DHT22;62088;50.240;2.696;2023-02-23T13:44:20;11.40;78.90
73777;DHT22;62088;50.240;2.696;2023-02-23T13:47:04;11.40;78.90
73777;DHT22;62088;50.240;2.696;2023-02-23T13:50:04;11.40;78.70
73777;DHT22;62088;50.240;2.696;2023-02-23T13:52:39;11.40;78.70
73777;DHT22;62088;50.240;2.696;2023-02-23T13:58:05;11.40;78.70
73777;DHT22;62088;50.240;2.696;2023-02-23T14:00:36;11.50;78.50
73777;DHT22;62088;50.240;2.696;2023-02-23T14:03:05;11.40;78.30
73777;DHT22;62088;50.240;2.696;2023-02-23T14:05:42;11.40;78.10
73777;DHT22;62088;50.240;2.696;2023-02-23T14:08:31;11.40;77.90
73777;DHT22;62088;50.240;2.696;2023-02-23T14:10:58;11.40;78.00
73777;DHT22;62088;50.240;2.696;2023-02-23T14:13:34;11.40;78.00
73777;DHT22;62088;50.240;2.696;2023-02-23T14:16:18;11.40;78.00
73777;DHT22;62088;50.240;2.696;2023-02-23T14:19:05;11.40;78.10
73777;DHT22;62088;50.240;2.696;2023-02-23T14:21:55;11.40;78.20
73777;DHT22;62088;50.240;2.696;2023-02-23T14:24:25;11.30;78.20
73777;DHT22;62088;50.240;2.696;2023-02-23T14:27:35;11.20;78.20
73777;DHT22;62088;50.240;2.696;2023-02-23T14:30:15;11.20;78.30
73777;DHT22;62088;50.240;2.696;2023-02-23T14:32:47;11.10;78.50
73777;DHT22;62088;50.240;2.696;2023-02-23T14:38:48;11.00;78.70
73777;DHT22;62088;50.240;2.696;2023-02-23T14:40:52;11.00;78.80
73777;DHT22;62088;50.240;2.696;2023-02-23T14:46:07;10.90;79.10
73777;DHT22;62088;50.240;2.696;2023-02-23T14:48:39;10.90;79.20
73777;DHT22;62088;50.240;2.696;2023-02-23T14:51:19;10.80;79.40
73777;DHT22;62088;50.240;2.696;2023-02-23T14:53:47;10.80;79.50
73777;DHT22;62088;50.240;2.696;2023-02-23T14:56:20;10.70;79.60
73777;DHT22;62088;50.240;2.696;2023-02-23T14:58:57;10.70;79.80
73777;DHT22;62088;50.240;2.696;2023-02-23T15:01:35;10.70;79.90
73777;DHT22;62088;50.240;2.696;2023-02-23T15:04:11;10.70;80.10
73777;DHT22;62088;50.240;2.696;2023-02-23T15:06:40;10.70;80.20
73777;DHT22;62088;50.240;2.696;2023-02-23T15:09:34;10.60;80.30
73777;DHT22;62088;50.240;2.696;2023-02-23T15:12:10;10.60;80.40
73777;DHT22;62088;50.240;2.696;2023-02-23T15:14:39;10.50;80.50
73777;DHT22;62088;50.240;2.696;2023-02-23T15:17:15;10.50;80.60
73777;DHT22;62088;50.240;2.696;2023-02-23T15:19:44;10.60;80.70
73777;DHT22;62088;50.240;2.696;2023-02-23T15:22:20;10.50;80.60
73777;DHT22;62088;50.240;2.696;2023-02-23T15:24:49;10.50;80.70
73777;DHT22;62088;50.240;2.696;2023-02-23T15:27:23;10.50;80.70
73777;DHT22;62088;50.240;2.696;2023-02-23T15:29:54;10.50;80.80
73777;DHT22;62088;50.240;2.696;2023-02-23T15:32:24;10.40;80.80
73777;DHT22;62088;50.240;2.696;2023-02-23T15:34:52;10.40;80.90
73777;DHT22;62088;50.240;2.696;2023-02-23T15:40:00;10.40;80.90
73777;DHT22;62088;50.240;2.696;2023-02-23T15:42:44;10.40;81.00
73777;DHT22;62088;50.240;2.696;2023-02-23T15:45:26;10.40;81.10
73777;DHT22;62088;50.240;2.696;2023-02-23T15:48:02;10.30;81.10
73777;DHT22;62088;50.240;2.696;2023-02-23T15:50:33;10.30;81.20
73777;DHT22;62088;50.240;2.696;2023-02-23T15:53:07;10.30;81.30
73777;DHT22;62088;50.240;2.696;2023-02-23T15:55:42;10.20;81.40
73777;DHT22;62088;50.240;2.696;2023-02-23T16:00:43;10.20;81.60
73777;DHT22;62088;50.240;2.696;2023-02-23T16:03:23;10.10;81.70
73777;DHT22;62088;50.240;2.696;2023-02-23T16:06:16;10.10;81.80
73777;DHT22;62088;50.240;2.696;2023-02-23T16:12:01;10.00;82.00
73777;DHT22;62088;50.240;2.696;2023-02-23T16:14:53;10.00;82.10
73777;DHT22;62088;50.240;2.696;2023-02-23T16:19:54;9.90;82.30
73777;DHT22;62088;50.240;2.696;2023-02-23T16:22:25;9.90;82.30
73777;DHT22;62088;50.240;2.696;2023-02-23T16:25:00;9.90;82.40
73777;DHT22;62088;50.240;2.696;2023-02-23T16:27:29;9.90;82.40
73777;DHT22;62088;50.240;2.696;2023-02-23T16:29:59;9.90;82.40
73777;DHT22;62088;50.240;2.696;2023-02-23T16:32:36;9.80;82.50
73777;DHT22;62088;50.240;2.696;2023-02-23T16:35:18;9.80;82.50
73777;DHT22;62088;50.240;2.696;2023-02-23T16:37:57;9.80;82.50
73777;DHT22;62088;50.240;2.696;2023-02-23T16:40:25;9.70;82.50
73777;DHT22;62088;50.240;2.696;2023-02-23T16:42:52;9.70;82.60
73777;DHT22;62088;50.240;2.696;2023-02-23T16:45:25;9.70;82.60
73777;DHT22;62088;50.240;2.696;2023-02-23T16:47:52;9.70;82.60
73777;DHT22;62088;50.240;2.696;2023-02-23T16:50:23;9.60;82.60
73777;DHT22;62088;50.240;2.696;2023-02-23T16:52:51;9.60;82.60
73777;DHT22;62088;50.240;2.696;2023-02-23T16:55:24;9.60;82.70
73777;DHT22;62088;50.240;2.696;2023-02-23T16:58:00;9.60;82.60
73777;DHT22;62088;50.240;2.696;2023-02-23T17:00:30;9.60;82.60
73777;DHT22;62088;50.240;2.696;2023-02-23T17:02:58;9.60;82.60
73777;DHT22;62088;50.240;2.696;2023-02-23T17:05:27;9.60;82.60
73777;DHT22;62088;50.240;2.696;2023-02-23T17:07:54;9.50;82.60
73777;DHT22;62088;50.240;2.696;2023-02-23T17:10:29;9.50;82.60
73777;DHT22;62088;50.240;2.696;2023-02-23T17:15:27;9.50;82.50
73777;DHT22;62088;50.240;2.696;2023-02-23T17:17:55;9.50;82.50
73777;DHT22;62088;50.240;2.696;2023-02-23T17:20:23;9.40;82.60
73777;DHT22;62088;50.240;2.696;2023-02-23T17:22:53;9.40;82.50
73777;DHT22;62088;50.240;2.696;2023-02-23T17:25:22;9.40;82.50
73777;DHT22;62088;50.240;2.696;2023-02-23T17:27:50;9.40;82.50
73777;DHT22;62088;50.240;2.696;2023-02-23T17:30:18;9.40;82.50
73777;DHT22;62088;50.240;2.696;2023-02-23T17:32:45;9.40;82.50
73777;DHT22;62088;50.240;2.696;2023-02-23T17:35:13;9.40;82.50
73777;DHT22;62088;50.240;2.696;2023-02-23T17:37:40;9.40;82.50
73777;DHT22;62088;50.240;2.696;2023-02-23T17:40:10;9.40;82.40
73777;DHT22;62088;50.240;2.696;2023-02-23T17:42:37;9.30;82.30
73777;DHT22;62088;50.240;2.696;2023-02-23T17:45:05;9.30;82.20
73777;DHT22;62088;50.240;2.696;2023-02-23T17:47:34;9.30;82.20
73777;DHT22;62088;50.240;2.696;2023-02-23T17:50:01;9.20;82.10
73777;DHT22;62088;50.240;2.696;2023-02-23T17:52:28;9.20;82.10
73777;DHT22;62088;50.240;2.696;2023-02-23T17:54:55;9.20;82.00
73777;DHT22;62088;50.240;2.696;2023-02-23T17:57:24;9.20;82.00
73777;DHT22;62088;50.240;2.696;2023-02-23T17:59:51;9.20;81.90
73777;DHT22;62088;50.240;2.696;2023-02-23T18:02:19;9.10;81.90
73777;DHT22;62088;50.240;2.696;2023-02-23T18:04:48;9.10;81.90
73777;DHT22;62088;50.240;2.696;2023-02-23T18:07:17;9.10;81.90